TAF LFRQ
AMD LFRQ 090932Z 0909/1006 17005KT 6000 -RA SCT008 BKN014 TEMPO 0909/0911 2000 -RADZ BKN003 BKN006 TEMPO 0911/0918 1500 RADZ BKN002 BECMG 0912/0915 26012KT BECMG 0916/0918 32018G28KT BECMG 0918/0920 SCT020 TEMPO 0919/1006 30020G38KT TEMPO 0921/1006 4000 SHRA BKN018TCU =
METAR LFRQ
LFRQ 091000Z AUTO VRB02KT 0900 R27/1400D -DZ FG BKN004 BKN009 OVC013 06/06 Q1008 TEMPO 1500 RADZ=
LFRQ 090900Z AUTO 00000KT 3700 -DZ BR OVC003 06/06 Q1008 BECMG RA BKN012=
LFRQ 090830Z AUTO 18002KT 2000 -DZ BR OVC007 05/05 Q1008 BECMG 3000 RA BKN012=
LFRQ 090800Z AUTO 07002KT 2500 -DZ BR SCT004 BKN010 BKN020 05/05 Q1008 TEMPO NSC BECMG 3000 RA=
LFRQ 090730Z AUTO 00000KT 6000 FEW006 BKN014 BKN024 05/05 Q1008 TEMPO NSC BECMG 3000 RA=
WC LFRQ
WS LFRQ
WV LFRQ